Time;durP1;ratioP1;P1;durP2;ratioP2;P2;SDS_P1;SDS_P2;PMS_P1;PMS_P2;Temp;Humidity;BMP_temperature;BMP_pressure;BME280_temperature;BME280_humidity;BME280_pressure;Samples;Min_cycle;Max_cycle;Signal;HPM_P1;HPM_P2
2022/05/24 00:00:06;;;;;;;1.38;1.27;;;;;;;;;;5059648;28;20031;-88
2022/05/24 00:02:32;;;;;;;1.15;1.10;;;;;;;;;;5060677;28;20031;-86
2022/05/24 00:04:57;;;;;;;2.55;1.30;;;;;;;;;;5055462;28;20506;-87
2022/05/24 00:07:23;;;;;;;1.10;0.90;;;;;;;;;;5082034;28;20111;-87
2022/05/24 00:09:48;;;;;;;0.90;0.90;;;;;;;;;;5080364;28;20470;-89
2022/05/24 00:12:14;;;;;;;3.08;1.05;;;;;;;;;;5079402;28;20381;-89
2022/05/24 00:17:24;;;;;;;1.05;1.05;;;;;;;;;;5069131;28;20039;-87
2022/05/24 00:19:49;;;;;;;4.82;1.20;;;;;;;;;;5057361;28;20017;-87
2022/05/24 00:22:15;;;;;;;1.30;1.20;;;;;;;;;;5058364;28;20075;-90
2022/05/24 00:24:40;;;;;;;2.35;1.60;;;;;;;;;;5055744;28;20111;-87
2022/05/24 00:27:05;;;;;;;1.67;1.25;;;;;;;;;;5075592;28;20494;-88
2022/05/24 00:29:31;;;;;;;1.33;1.23;;;;;;;;;;5076107;28;20025;-87
2022/05/24 00:31:56;;;;;;;2.72;1.40;;;;;;;;;;5073282;28;20021;-88
2022/05/24 00:34:22;;;;;;;3.30;1.35;;;;;;;;;;5074881;28;20024;-88
2022/05/24 00:36:47;;;;;;;2.72;1.60;;;;;;;;;;5071960;28;20031;-88
2022/05/24 00:39:12;;;;;;;2.45;1.45;;;;;;;;;;5072422;28;20085;-89
2022/05/24 00:41:42;;;;;;;2.60;1.50;;;;;;;;;;5070876;28;20036;-88
2022/05/24 00:44:17;;;;;;;3.75;1.58;;;;;;;;;;5045736;28;20112;-88
2022/05/24 00:46:50;;;;;;;2.72;1.58;;;;;;;;;;5067286;28;20039;-89
2022/05/24 00:49:32;;;;;;;3.97;1.77;;;;;;;;;;5068871;28;20030;-88
2022/05/24 00:52:06;;;;;;;3.03;1.50;;;;;;;;;;5047908;28;20648;-90
2022/05/24 00:54:31;;;;;;;4.93;2.15;;;;;;;;;;5047182;28;20060;-89
2022/05/24 00:57:00;;;;;;;3.40;1.80;;;;;;;;;;5066077;28;20024;-89
2022/05/24 00:59:53;;;;;;;1.70;1.60;;;;;;;;;;5087524;28;20089;-89
2022/05/24 01:02:19;;;;;;;2.75;1.80;;;;;;;;;;5072833;28;20028;-86
2022/05/24 01:04:44;;;;;;;2.85;2.10;;;;;;;;;;5073335;28;20040;-88
2022/05/24 01:07:10;;;;;;;2.65;2.00;;;;;;;;;;5067116;28;20023;-87
2022/05/24 01:09:53;;;;;;;2.45;1.90;;;;;;;;;;5061673;28;20454;-87
2022/05/24 01:12:24;;;;;;;2.03;1.83;;;;;;;;;;5077687;28;20482;-88
2022/05/24 01:14:51;;;;;;;2.97;2.00;;;;;;;;;;5098989;28;20014;-88
2022/05/24 01:17:16;;;;;;;1.98;1.77;;;;;;;;;;5099951;28;20028;-88
2022/05/24 01:19:46;;;;;;;2.35;2.05;;;;;;;;;;5072959;28;20379;-88
2022/05/24 01:22:23;;;;;;;2.17;2.00;;;;;;;;;;5090124;28;20027;-86
2022/05/24 01:25:15;;;;;;;3.63;1.92;;;;;;;;;;5089196;28;20032;-88
2022/05/24 01:27:40;;;;;;;4.63;2.40;;;;;;;;;;5045384;28;20040;-87
2022/05/24 01:30:07;;;;;;;2.22;2.03;;;;;;;;;;5067837;28;20024;-88
2022/05/24 01:38:08;;;;;;;3.63;2.30;;;;;;;;;;5083876;28;20098;-89
2022/05/24 01:40:33;;;;;;;5.68;2.50;;;;;;;;;;5086575;28;20062;-88
2022/05/24 01:42:59;;;;;;;4.72;2.50;;;;;;;;;;5105250;28;20028;-88
2022/05/24 01:45:43;;;;;;;4.72;2.20;;;;;;;;;;5102972;28;20024;-87
2022/05/24 01:48:13;;;;;;;2.28;1.95;;;;;;;;;;5106764;28;20612;-87
2022/05/24 01:50:42;;;;;;;3.45;2.38;;;;;;;;;;5099618;28;20016;-86
2022/05/24 01:53:15;;;;;;;2.63;2.20;;;;;;;;;;5098096;28;20020;-87
2022/05/24 01:55:47;;;;;;;3.20;2.30;;;;;;;;;;5055008;28;20111;-87
2022/05/24 01:58:15;;;;;;;3.60;2.63;;;;;;;;;;5072390;28;20028;-87
2022/05/24 02:00:46;;;;;;;3.08;2.33;;;;;;;;;;5082287;28;20082;-88
2022/05/24 02:03:11;;;;;;;2.42;2.20;;;;;;;;;;5070794;28;20023;-87
2022/05/24 02:05:40;;;;;;;2.75;2.30;;;;;;;;;;5094838;28;20026;-88
2022/05/24 02:08:08;;;;;;;3.72;2.60;;;;;;;;;;5100670;28;20024;-85
2022/05/24 02:10:46;;;;;;;3.78;2.63;;;;;;;;;;5110156;28;20033;-88
2022/05/24 02:13:22;;;;;;;2.85;2.35;;;;;;;;;;5067154;28;20032;-88
2022/05/24 02:15:51;;;;;;;2.38;2.17;;;;;;;;;;5061972;28;20024;-88
2022/05/24 02:18:18;;;;;;;3.25;2.25;;;;;;;;;;5096578;28;20016;-88
2022/05/24 02:20:45;;;;;;;2.60;2.40;;;;;;;;;;5093334;28;20016;-87
2022/05/24 02:23:13;;;;;;;4.93;1.83;;;;;;;;;;5094044;28;20028;-87
2022/05/24 02:25:44;;;;;;;3.10;2.20;;;;;;;;;;5092974;28;20039;-87
2022/05/24 02:28:12;;;;;;;2.30;2.10;;;;;;;;;;5096224;28;20027;-88
2022/05/24 02:30:40;;;;;;;8.77;2.40;;;;;;;;;;5078140;28;20039;-89
2022/05/24 02:33:05;;;;;;;2.40;1.90;;;;;;;;;;5090897;28;20019;-86
2022/05/24 02:35:31;;;;;;;3.17;1.92;;;;;;;;;;5092838;28;20016;-87
2022/05/24 02:37:56;;;;;;;3.75;2.20;;;;;;;;;;5089619;28;20153;-87
2022/05/24 02:43:06;;;;;;;2.33;2.05;;;;;;;;;;5090660;28;20027;-88
2022/05/24 02:45:32;;;;;;;3.25;2.25;;;;;;;;;;5086327;28;20029;-88
2022/05/24 02:47:57;;;;;;;2.80;2.20;;;;;;;;;;5083176;28;20055;-89
2022/05/24 02:50:23;;;;;;;2.20;1.98;;;;;;;;;;5077483;28;20023;-86
2022/05/24 02:52:49;;;;;;;2.40;2.20;;;;;;;;;;5060783;28;20025;-88
2022/05/24 02:55:15;;;;;;;2.65;2.45;;;;;;;;;;5080740;28;20027;-87
2022/05/24 02:57:41;;;;;;;2.83;2.63;;;;;;;;;;5048748;28;20440;-87
2022/05/24 03:00:19;;;;;;;7.93;2.75;;;;;;;;;;5050265;28;20430;-86
2022/05/24 03:02:45;;;;;;;4.25;2.72;;;;;;;;;;5049888;28;20027;-87
2022/05/24 03:05:12;;;;;;;2.67;2.47;;;;;;;;;;5084868;28;20020;-87
2022/05/24 03:10:23;;;;;;;2.65;2.45;;;;;;;;;;5075537;28;20555;-88
2022/05/24 03:15:33;;;;;;;2.67;2.28;;;;;;;;;;5092643;28;20052;-88
2022/05/24 03:17:59;;;;;;;7.45;2.35;;;;;;;;;;5088170;28;20026;-88
2022/05/24 03:20:26;;;;;;;5.22;2.47;;;;;;;;;;5081004;28;20048;-87
2022/05/24 03:22:51;;;;;;;7.80;3.13;;;;;;;;;;5087413;28;20016;-87
2022/05/24 03:25:17;;;;;;;5.78;2.33;;;;;;;;;;5074166;28;20086;-87
2022/05/24 03:27:42;;;;;;;4.40;2.90;;;;;;;;;;5085466;28;20051;-88
2022/05/24 03:30:08;;;;;;;5.47;3.00;;;;;;;;;;5085890;28;20069;-88
2022/05/24 03:32:33;;;;;;;2.63;2.42;;;;;;;;;;5091769;28;20028;-86
2022/05/24 03:35:03;;;;;;;3.03;2.72;;;;;;;;;;5091012;28;20091;-86
2022/05/24 03:37:28;;;;;;;6.75;2.90;;;;;;;;;;5053755;28;20112;-85
2022/05/24 03:39:53;;;;;;;3.50;2.70;;;;;;;;;;5062465;28;20070;-89
2022/05/24 03:42:19;;;;;;;4.40;2.47;;;;;;;;;;5092483;28;20024;-87
2022/05/24 03:44:44;;;;;;;2.83;2.58;;;;;;;;;;5095324;28;20044;-89
2022/05/24 03:47:09;;;;;;;3.13;2.75;;;;;;;;;;5081316;28;20032;-88
2022/05/24 03:49:35;;;;;;;4.78;2.50;;;;;;;;;;5056414;28;20051;-88
2022/05/24 03:52:00;;;;;;;3.85;2.72;;;;;;;;;;5081681;28;20069;-87
2022/05/24 03:54:26;;;;;;;3.67;2.72;;;;;;;;;;5064018;28;20028;-86
2022/05/24 03:59:35;;;;;;;3.50;2.83;;;;;;;;;;5057407;28;20032;-88
2022/05/24 04:02:00;;;;;;;6.05;3.05;;;;;;;;;;5063454;28;20025;-86
2022/05/24 04:04:26;;;;;;;2.83;2.60;;;;;;;;;;5066853;28;20028;-87
2022/05/24 04:06:51;;;;;;;3.30;2.70;;;;;;;;;;5088392;28;20047;-88
2022/05/24 04:09:16;;;;;;;3.60;2.80;;;;;;;;;;5062237;28;20544;-87
2022/05/24 04:11:42;;;;;;;3.30;2.88;;;;;;;;;;5075277;28;20086;-89
2022/05/24 04:14:07;;;;;;;4.25;2.65;;;;;;;;;;5075218;28;20035;-89
2022/05/24 04:16:33;;;;;;;2.70;2.50;;;;;;;;;;5074264;28;20028;-87
2022/05/24 04:18:58;;;;;;;4.97;2.40;;;;;;;;;;5073795;28;20646;-89
2022/05/24 04:21:23;;;;;;;5.97;2.35;;;;;;;;;;5074483;28;20078;-88
2022/05/24 04:23:49;;;;;;;3.80;2.47;;;;;;;;;;5094132;28;20024;-87
2022/05/24 04:26:15;;;;;;;2.42;2.20;;;;;;;;;;5094797;28;20597;-87
2022/05/24 04:28:40;;;;;;;4.82;1.98;;;;;;;;;;5076140;28;20020;-89
2022/05/24 04:31:06;;;;;;;2.58;1.77;;;;;;;;;;5094638;28;20103;-87
2022/05/24 04:33:31;;;;;;;2.65;1.50;;;;;;;;;;5091371;28;20024;-87
2022/05/24 04:35:57;;;;;;;3.38;1.70;;;;;;;;;;5077269;28;20477;-88
2022/05/24 04:38:23;;;;;;;2.97;1.52;;;;;;;;;;5081510;28;20478;-87
2022/05/24 04:43:32;;;;;;;1.27;1.17;;;;;;;;;;5097912;28;20039;-88
2022/05/24 04:46:12;;;;;;;3.85;1.30;;;;;;;;;;5077195;28;20028;-89
2022/05/24 04:48:37;;;;;;;1.77;1.20;;;;;;;;;;5093293;28;20047;-88
2022/05/24 04:51:03;;;;;;;1.67;1.30;;;;;;;;;;5049391;28;20398;-88
2022/05/24 04:53:28;;;;;;;1.77;1.40;;;;;;;;;;5062988;28;20111;-89
2022/05/24 04:55:54;;;;;;;1.25;1.10;;;;;;;;;;5093875;28;20016;-89
2022/05/24 04:58:20;;;;;;;1.73;1.10;;;;;;;;;;5061932;28;20067;-91
2022/05/24 05:00:48;;;;;;;1.13;1.00;;;;;;;;;;5086686;28;20046;-88
2022/05/24 05:03:22;;;;;;;1.00;1.00;;;;;;;;;;5074530;28;20109;-92
2022/05/24 05:05:49;;;;;;;1.80;1.17;;;;;;;;;;5056988;28;20032;-88
2022/05/24 05:08:15;;;;;;;1.15;1.10;;;;;;;;;;5068533;28;20080;-87
2022/05/24 05:10:40;;;;;;;1.35;1.25;;;;;;;;;;5059364;28;20035;-88
2022/05/24 05:13:06;;;;;;;4.63;1.35;;;;;;;;;;5073903;28;20020;-89
2022/05/24 05:15:34;;;;;;;1.15;1.15;;;;;;;;;;5074005;28;20445;-90
2022/05/24 05:18:11;;;;;;;2.30;1.10;;;;;;;;;;5052350;28;20036;-90
2022/05/24 05:20:41;;;;;;;0.93;0.90;;;;;;;;;;5053655;28;20017;-88
2022/05/24 05:23:10;;;;;;;1.20;1.10;;;;;;;;;;5071269;28;20024;-89
2022/05/24 05:25:36;;;;;;;1.23;1.13;;;;;;;;;;5059394;28;20078;-87
2022/05/24 05:28:02;;;;;;;3.47;1.08;;;;;;;;;;5058643;28;20031;-90
2022/05/24 05:33:14;;;;;;;1.10;0.98;;;;;;;;;;5077391;28;20036;-88
2022/05/24 05:35:42;;;;;;;1.63;1.17;;;;;;;;;;5098664;28;20016;-88
2022/05/24 05:38:07;;;;;;;9.55;2.67;;;;;;;;;;5051015;28;20032;-90
2022/05/24 05:40:33;;;;;;;1.63;1.10;;;;;;;;;;5079254;28;20032;-89
2022/05/24 05:42:58;;;;;;;5.15;1.10;;;;;;;;;;5060304;28;20024;-90
2022/05/24 05:45:24;;;;;;;1.48;1.25;;;;;;;;;;5079110;28;20025;-89
2022/05/24 05:47:49;;;;;;;1.25;1.17;;;;;;;;;;5057077;28;20118;-90
2022/05/24 05:50:15;;;;;;;5.10;1.48;;;;;;;;;;5048125;28;20478;-89
2022/05/24 05:52:40;;;;;;;0.75;0.75;;;;;;;;;;5072640;28;20083;-89
2022/05/24 05:55:06;;;;;;;1.17;1.08;;;;;;;;;;5051163;28;20130;-92
2022/05/24 05:57:31;;;;;;;1.35;1.20;;;;;;;;;;5077535;28;20051;-88
2022/05/24 05:59:56;;;;;;;2.65;1.10;;;;;;;;;;5092965;28;20028;-88
2022/05/24 06:02:22;;;;;;;1.50;1.40;;;;;;;;;;5070460;28;20032;-88
2022/05/24 06:04:47;;;;;;;1.52;1.42;;;;;;;;;;5081608;23;20037;-79
2022/05/24 06:07:13;;;;;;;1.30;1.23;;;;;;;;;;5065100;28;20092;-79
2022/05/24 06:09:38;;;;;;;2.13;1.63;;;;;;;;;;5063007;28;20035;-81
2022/05/24 06:12:04;;;;;;;3.72;1.92;;;;;;;;;;5063054;28;20028;-80
2022/05/24 06:14:30;;;;;;;2.17;1.50;;;;;;;;;;5078676;28;20017;-80
2022/05/24 06:16:55;;;;;;;3.08;1.50;;;;;;;;;;5064376;28;20055;-78
2022/05/24 06:19:21;;;;;;;4.32;1.75;;;;;;;;;;5079989;28;20027;-81
2022/05/24 06:21:46;;;;;;;2.90;1.50;;;;;;;;;;5079979;28;20774;-78
2022/05/24 06:24:11;;;;;;;1.50;1.40;;;;;;;;;;5084041;28;20024;-77
2022/05/24 06:26:37;;;;;;;1.30;1.20;;;;;;;;;;5077678;28;20086;-79
2022/05/24 06:29:05;;;;;;;3.47;1.50;;;;;;;;;;5078565;28;20025;-78
2022/05/24 06:31:30;;;;;;;2.90;1.10;;;;;;;;;;5079682;28;20070;-78
2022/05/24 06:33:56;;;;;;;3.72;1.40;;;;;;;;;;5084207;28;20024;-78
2022/05/24 06:36:21;;;;;;;3.97;1.70;;;;;;;;;;5070102;28;20020;-80
2022/05/24 06:38:47;;;;;;;2.90;1.55;;;;;;;;;;5080933;28;20020;-81
2022/05/24 06:41:13;;;;;;;2.10;1.27;;;;;;;;;;5083941;28;20103;-79
2022/05/24 06:43:38;;;;;;;3.22;1.40;;;;;;;;;;5084447;28;20065;-81
2022/05/24 06:46:07;;;;;;;4.50;1.30;;;;;;;;;;5080913;28;20013;-78
2022/05/24 06:48:42;;;;;;;6.05;1.75;;;;;;;;;;5090340;28;20040;-79
2022/05/24 06:51:10;;;;;;;1.95;1.17;;;;;;;;;;5079559;28;20074;-79
2022/05/24 06:53:37;;;;;;;1.67;1.17;;;;;;;;;;5081187;28;20029;-78
2022/05/24 06:56:02;;;;;;;2.97;1.90;;;;;;;;;;5079450;28;20070;-77
2022/05/24 06:58:27;;;;;;;1.63;1.27;;;;;;;;;;5062231;28;20078;-78
2022/05/24 07:03:38;;;;;;;2.38;1.15;;;;;;;;;;5091288;28;20103;-79
2022/05/24 07:06:04;;;;;;;2.80;1.45;;;;;;;;;;5080273;28;20024;-79
2022/05/24 07:08:29;;;;;;;4.78;0.60;;;;;;;;;;5093591;28;20034;-80
2022/05/24 07:10:55;;;;;;;3.05;0.65;;;;;;;;;;5089891;28;20063;-82
2022/05/24 07:13:20;;;;;;;1.20;0.60;;;;;;;;;;5089515;28;20024;-81
2022/05/24 07:15:47;;;;;;;3.08;0.95;;;;;;;;;;5077359;28;20013;-80
2022/05/24 07:18:13;;;;;;;2.15;0.85;;;;;;;;;;5089544;28;20126;-82
2022/05/24 07:20:38;;;;;;;1.63;0.60;;;;;;;;;;5078346;28;20475;-83
2022/05/24 07:23:17;;;;;;;3.92;0.77;;;;;;;;;;5076821;28;20150;-80
2022/05/24 07:25:44;;;;;;;1.45;0.80;;;;;;;;;;5059033;28;20121;-81
2022/05/24 07:28:12;;;;;;;1.63;0.80;;;;;;;;;;5076372;28;20071;-80
2022/05/24 07:30:38;;;;;;;0.85;0.70;;;;;;;;;;5057765;28;20020;-79
2022/05/24 07:33:04;;;;;;;0.70;0.70;;;;;;;;;;5084729;28;20025;-80
2022/05/24 07:35:30;;;;;;;1.25;0.80;;;;;;;;;;5083335;28;20031;-80
2022/05/24 07:37:55;;;;;;;0.47;0.47;;;;;;;;;;5084662;28;20032;-80
2022/05/24 07:45:53;;;;;;;4.78;1.50;;;;;;;;;;5077472;28;20449;-80
2022/05/24 07:48:20;;;;;;;0.88;0.68;;;;;;;;;;5073483;28;20020;-81
2022/05/24 07:50:46;;;;;;;2.65;0.80;;;;;;;;;;5075850;28;20054;-77
2022/05/24 07:53:11;;;;;;;0.98;0.80;;;;;;;;;;5075705;28;20028;-80
2022/05/24 07:55:37;;;;;;;3.90;0.70;;;;;;;;;;5077463;28;20017;-79
2022/05/24 07:58:03;;;;;;;1.60;0.50;;;;;;;;;;5076750;28;20354;-79
2022/05/24 08:00:29;;;;;;;1.48;0.95;;;;;;;;;;5075788;28;20509;-79
2022/05/24 08:02:54;;;;;;;0.77;0.63;;;;;;;;;;5076115;28;20172;-79
2022/05/24 08:05:21;;;;;;;0.40;0.40;;;;;;;;;;5075689;28;20020;-79
2022/05/24 08:07:46;;;;;;;0.57;0.57;;;;;;;;;;5076452;28;20025;-79
2022/05/24 08:10:13;;;;;;;0.40;0.40;;;;;;;;;;5076981;28;20493;-81
2022/05/24 08:12:39;;;;;;;1.00;0.63;;;;;;;;;;5074351;28;20070;-80
2022/05/24 08:15:05;;;;;;;0.70;0.70;;;;;;;;;;5074452;28;20017;-80
2022/05/24 08:17:30;;;;;;;0.82;0.50;;;;;;;;;;5075176;28;20309;-80
2022/05/24 08:19:56;;;;;;;0.50;0.50;;;;;;;;;;5079975;28;20169;-79
2022/05/24 08:22:21;;;;;;;1.65;0.38;;;;;;;;;;5077390;28;20024;-80
2022/05/24 08:24:47;;;;;;;1.38;0.70;;;;;;;;;;5078820;28;20020;-80
2022/05/24 08:27:14;;;;;;;0.50;0.50;;;;;;;;;;5073821;28;20111;-79
2022/05/24 08:29:44;;;;;;;0.40;0.40;;;;;;;;;;5077407;28;20024;-80
2022/05/24 08:32:11;;;;;;;0.40;0.40;;;;;;;;;;5081636;28;20064;-82
2022/05/24 08:34:38;;;;;;;0.47;0.47;;;;;;;;;;5063634;28;20414;-82
2022/05/24 08:37:04;;;;;;;0.70;0.60;;;;;;;;;;5078464;28;20102;-81
2022/05/24 08:39:30;;;;;;;1.17;0.63;;;;;;;;;;5063499;28;20038;-82
2022/05/24 08:42:06;;;;;;;0.85;0.60;;;;;;;;;;5074618;28;20024;-82
2022/05/24 08:50:13;;;;;;;1.63;0.70;;;;;;;;;;5074202;28;20036;-83
2022/05/24 08:52:47;;;;;;;0.50;0.50;;;;;;;;;;5074010;28;20017;-81
2022/05/24 08:55:14;;;;;;;0.55;0.55;;;;;;;;;;5080363;28;20012;-83
2022/05/24 08:57:46;;;;;;;0.82;0.57;;;;;;;;;;5088806;28;21075;-77
2022/05/24 09:00:39;;;;;;;2.30;0.57;;;;;;;;;;5086081;28;20043;-82
2022/05/24 09:03:06;;;;;;;0.22;0.22;;;;;;;;;;5079598;28;20084;-80
2022/05/24 09:05:31;;;;;;;0.32;0.32;;;;;;;;;;5084128;28;20036;-82
2022/05/24 09:08:09;;;;;;;4.22;0.55;;;;;;;;;;5082117;28;20025;-80
2022/05/24 09:10:40;;;;;;;1.75;0.43;;;;;;;;;;5079633;28;20051;-81
2022/05/24 09:13:27;;;;;;;0.90;0.40;;;;;;;;;;5080513;28;20067;-80
2022/05/24 09:16:04;;;;;;;0.30;0.30;;;;;;;;;;5066505;28;20070;-81
2022/05/24 09:18:48;;;;;;;1.85;0.32;;;;;;;;;;5081992;28;20024;-82
2022/05/24 09:21:22;;;;;;;1.08;0.80;;;;;;;;;;5074036;28;20055;-80
2022/05/24 09:24:04;;;;;;;1.25;0.47;;;;;;;;;;5077245;28;20126;-81
2022/05/24 09:26:30;;;;;;;0.52;0.40;;;;;;;;;;5057765;28;20029;-77
2022/05/24 09:28:58;;;;;;;1.55;0.50;;;;;;;;;;5079128;28;20363;-79
2022/05/24 09:31:41;;;;;;;0.47;0.30;;;;;;;;;;5082013;28;20056;-81
2022/05/24 09:34:33;;;;;;;0.40;0.40;;;;;;;;;;5079858;28;20030;-79
2022/05/24 09:37:25;;;;;;;1.85;0.60;;;;;;;;;;5078788;28;20012;-78
2022/05/24 09:40:04;;;;;;;0.40;0.40;;;;;;;;;;5080028;28;20044;-76
2022/05/24 09:42:36;;;;;;;0.47;0.40;;;;;;;;;;5072768;28;20048;-77
2022/05/24 09:45:15;;;;;;;0.30;0.30;;;;;;;;;;5076355;28;20046;-81
2022/05/24 09:47:43;;;;;;;0.40;0.40;;;;;;;;;;5071233;28;20097;-81
2022/05/24 09:50:17;;;;;;;1.73;0.63;;;;;;;;;;5079420;28;20024;-80
2022/05/24 09:53:03;;;;;;;0.30;0.30;;;;;;;;;;5077480;28;20073;-78
2022/05/24 09:55:47;;;;;;;1.48;0.45;;;;;;;;;;5078561;28;20024;-83
2022/05/24 09:58:30;;;;;;;1.83;0.50;;;;;;;;;;5061804;28;20028;-82
2022/05/24 10:01:01;;;;;;;1.10;0.47;;;;;;;;;;5060363;28;20017;-83
2022/05/24 10:03:29;;;;;;;0.57;0.57;;;;;;;;;;5081673;28;20025;-82
2022/05/24 10:06:03;;;;;;;1.52;0.40;;;;;;;;;;5084142;28;20036;-82
2022/05/24 10:08:34;;;;;;;0.80;0.80;;;;;;;;;;5087157;28;20491;-81
2022/05/24 10:11:01;;;;;;;0.50;0.50;;;;;;;;;;5081750;28;20051;-78
2022/05/24 10:13:45;;;;;;;0.32;0.32;;;;;;;;;;5079817;28;20025;-82
2022/05/24 10:16:29;;;;;;;0.40;0.40;;;;;;;;;;5079499;28;20012;-81
2022/05/24 10:19:21;;;;;;;0.90;0.50;;;;;;;;;;5079806;28;20024;-79
2022/05/24 10:21:59;;;;;;;0.70;0.50;;;;;;;;;;5075569;28;20021;-79
2022/05/24 10:24:33;;;;;;;0.55;0.55;;;;;;;;;;5080557;28;20085;-81
2022/05/24 10:27:13;;;;;;;2.20;0.60;;;;;;;;;;5084739;28;20027;-80
2022/05/24 10:30:06;;;;;;;1.15;0.40;;;;;;;;;;5057310;28;20016;-79
2022/05/24 10:38:56;;;;;;;0.60;0.33;;;;;;;;;;5076756;28;20157;-81
2022/05/24 10:41:30;;;;;;;1.52;0.35;;;;;;;;;;5039530;28;20033;-79
2022/05/24 10:44:13;;;;;;;0.50;0.50;;;;;;;;;;5077316;28;20025;-80
2022/05/24 10:46:46;;;;;;;1.92;0.32;;;;;;;;;;5073957;28;20028;-78
2022/05/24 10:49:44;;;;;;;0.30;0.30;;;;;;;;;;5066852;28;20079;-81
2022/05/24 10:52:23;;;;;;;0.90;0.47;;;;;;;;;;5076668;28;20030;-83
2022/05/24 10:54:55;;;;;;;0.75;0.40;;;;;;;;;;5078095;28;20025;-82
2022/05/24 10:57:31;;;;;;;;;;;;;;;;;;5084599;28;20103;-75
2022/05/24 11:00:06;;;;;;;0.75;0.50;;;;;;;;;;5056450;28;19912;-82
2022/05/24 11:02:49;;;;;;;0.93;0.35;;;;;;;;;;5083379;28;20107;-82
2022/05/24 11:05:26;;;;;;;1.88;0.63;;;;;;;;;;5082319;28;20039;-81
2022/05/24 11:08:03;;;;;;;1.10;0.52;;;;;;;;;;5079228;28;20028;-82
2022/05/24 11:10:33;;;;;;;2.05;0.40;;;;;;;;;;5081723;28;20035;-82
2022/05/24 11:13:06;;;;;;;0.52;0.52;;;;;;;;;;5077307;28;20040;-82
2022/05/24 11:15:54;;;;;;;2.55;0.63;;;;;;;;;;5079176;28;20501;-82
2022/05/24 11:18:23;;;;;;;0.60;0.57;;;;;;;;;;5078725;28;20059;-82
2022/05/24 11:20:55;;;;;;;0.60;0.60;;;;;;;;;;5081542;28;20077;-82
2022/05/24 11:23:26;;;;;;;0.50;0.50;;;;;;;;;;5076841;28;20081;-82
2022/05/24 11:26:09;;;;;;;1.52;0.60;;;;;;;;;;5084469;28;20485;-80
2022/05/24 11:28:43;;;;;;;0.43;0.43;;;;;;;;;;5057599;28;20043;-83
2022/05/24 11:31:20;;;;;;;1.95;0.68;;;;;;;;;;5077568;28;20534;-83
2022/05/24 11:33:48;;;;;;;0.40;0.40;;;;;;;;;;5081935;28;20071;-83
2022/05/24 11:36:40;;;;;;;3.05;0.85;;;;;;;;;;5081505;28;20412;-83
2022/05/24 11:39:31;;;;;;;1.88;0.40;;;;;;;;;;5078921;28;20044;-83
2022/05/24 11:42:28;;;;;;;1.35;0.60;;;;;;;;;;5085315;28;20020;-82
2022/05/24 11:45:28;;;;;;;0.77;0.43;;;;;;;;;;5083352;28;20080;-80
2022/05/24 11:48:15;;;;;;;2.70;0.63;;;;;;;;;;5085935;28;20058;-80
2022/05/24 11:50:44;;;;;;;0.50;0.50;;;;;;;;;;5086591;28;20051;-81
2022/05/24 11:53:11;;;;;;;0.50;0.50;;;;;;;;;;5076473;28;20035;-80
2022/05/24 11:56:03;;;;;;;0.60;0.50;;;;;;;;;;5092529;28;20043;-80
2022/05/24 11:58:31;;;;;;;2.58;0.73;;;;;;;;;;5057485;28;20033;-82
2022/05/24 12:01:01;;;;;;;0.75;0.45;;;;;;;;;;5085267;28;20048;-82
2022/05/24 12:09:20;;;;;;;2.55;0.60;;;;;;;;;;5074100;28;20098;-80
2022/05/24 12:11:47;;;;;;;0.90;0.45;;;;;;;;;;5075992;28;20042;-79
2022/05/24 12:14:34;;;;;;;1.20;0.95;;;;;;;;;;5077211;28;20762;-80
2022/05/24 12:17:00;;;;;;;2.97;0.40;;;;;;;;;;5058040;28;20012;-83
2022/05/24 12:19:40;;;;;;;4.13;0.95;;;;;;;;;;5058428;28;20107;-81
2022/05/24 12:22:18;;;;;;;0.88;0.50;;;;;;;;;;5068696;28;20016;-80
2022/05/24 12:24:55;;;;;;;5.20;0.82;;;;;;;;;;5083251;28;20081;-80
2022/05/24 12:27:39;;;;;;;1.15;0.45;;;;;;;;;;5070861;28;20029;-77
2022/05/24 12:30:28;;;;;;;1.33;0.70;;;;;;;;;;5084374;28;20032;-81
2022/05/24 12:32:56;;;;;;;1.10;0.70;;;;;;;;;;5055376;28;20017;-79
2022/05/24 12:36:18;;;;;;;3.25;0.40;;;;;;;;;;5060290;28;20021;-80
2022/05/24 12:38:50;;;;;;;1.65;0.40;;;;;;;;;;5079737;28;20019;-81
2022/05/24 12:41:25;;;;;;;;;;;;;;;;;;5080845;28;20028;-78
2022/05/24 12:44:03;;;;;;;1.00;0.60;;;;;;;;;;5078281;28;20294;-82
2022/05/24 12:46:31;;;;;;;0.98;0.50;;;;;;;;;;5077615;28;20033;-80
2022/05/24 12:49:19;;;;;;;1.17;0.63;;;;;;;;;;5078307;28;20045;-80
2022/05/24 12:51:45;;;;;;;0.38;0.38;;;;;;;;;;5061910;28;20052;-82
2022/05/24 12:54:32;;;;;;;1.65;0.60;;;;;;;;;;5079271;28;20013;-80
2022/05/24 12:57:01;;;;;;;0.57;0.55;;;;;;;;;;5076349;28;20032;-82
2022/05/24 12:59:34;;;;;;;0.47;0.47;;;;;;;;;;5078641;28;20024;-83
2022/05/24 13:02:31;;;;;;;2.92;0.50;;;;;;;;;;5077381;28;20055;-84
2022/05/24 13:05:08;;;;;;;1.02;0.77;;;;;;;;;;5075315;28;20067;-82
2022/05/24 13:07:40;;;;;;;0.57;0.50;;;;;;;;;;5081538;28;20037;-82
2022/05/24 13:10:30;;;;;;;0.47;0.47;;;;;;;;;;5061207;28;20024;-78
2022/05/24 13:12:57;;;;;;;0.88;0.63;;;;;;;;;;5084128;28;20071;-80
2022/05/24 13:15:37;;;;;;;0.47;0.40;;;;;;;;;;5062408;28;20027;-81
2022/05/24 13:18:09;;;;;;;0.60;0.52;;;;;;;;;;5060879;28;20048;-81
2022/05/24 13:20:54;;;;;;;;;;;;;;;;;;5077937;28;20028;-80
2022/05/24 13:23:21;;;;;;;1.30;0.52;;;;;;;;;;5076003;28;19952;-79
2022/05/24 13:25:55;;;;;;;0.52;0.52;;;;;;;;;;5076165;28;20482;-79
2022/05/24 13:28:39;;;;;;;1.35;0.60;;;;;;;;;;5072662;28;20052;-79
2022/05/24 13:34:29;;;;;;;0.45;0.45;;;;;;;;;;5064391;28;20123;-79
2022/05/24 13:36:56;;;;;;;1.88;0.50;;;;;;;;;;5073906;28;20021;-79
2022/05/24 13:39:26;;;;;;;1.92;0.60;;;;;;;;;;5073317;28;20028;-80
2022/05/24 13:42:05;;;;;;;1.00;0.55;;;;;;;;;;5070657;28;20033;-80
2022/05/24 13:44:35;;;;;;;0.82;0.68;;;;;;;;;;5077805;28;20044;-79
2022/05/24 13:47:25;;;;;;;1.48;0.73;;;;;;;;;;5076692;28;20024;-78
2022/05/24 13:49:54;;;;;;;0.77;0.43;;;;;;;;;;5077266;28;20024;-79
2022/05/24 13:52:23;;;;;;;1.73;0.70;;;;;;;;;;5076726;28;20450;-80
2022/05/24 13:54:50;;;;;;;0.88;0.80;;;;;;;;;;5073513;28;20039;-80
2022/05/24 13:57:27;;;;;;;3.60;0.75;;;;;;;;;;5078903;28;20020;-80
2022/05/24 14:00:20;;;;;;;1.60;0.70;;;;;;;;;;5058130;28;20423;-80
2022/05/24 14:02:54;;;;;;;5.28;0.88;;;;;;;;;;5073203;28;20025;-79
2022/05/24 14:05:33;;;;;;;2.58;0.80;;;;;;;;;;5070616;28;20041;-79
2022/05/24 14:07:59;;;;;;;2.78;0.68;;;;;;;;;;5077788;28;20059;-81
2022/05/24 14:10:24;;;;;;;1.73;0.60;;;;;;;;;;5074445;28;20048;-79
2022/05/24 14:12:50;;;;;;;1.90;0.45;;;;;;;;;;5073341;28;20013;-80
2022/05/24 14:15:15;;;;;;;0.60;0.40;;;;;;;;;;5075552;28;20382;-78
2022/05/24 14:17:40;;;;;;;1.75;0.50;;;;;;;;;;5070906;28;20036;-81
2022/05/24 14:20:06;;;;;;;1.30;0.77;;;;;;;;;;5073948;28;20020;-81
2022/05/24 14:22:32;;;;;;;1.50;0.60;;;;;;;;;;5076597;28;20099;-78
2022/05/24 14:24:57;;;;;;;0.68;0.60;;;;;;;;;;5080284;28;20040;-79
2022/05/24 14:27:23;;;;;;;1.50;0.80;;;;;;;;;;5077441;28;20109;-79
2022/05/24 14:29:48;;;;;;;1.95;0.60;;;;;;;;;;5078026;28;20028;-79
2022/05/24 14:32:14;;;;;;;1.63;0.52;;;;;;;;;;5058879;28;20049;-79
2022/05/24 14:34:39;;;;;;;0.50;0.50;;;;;;;;;;5076609;28;20120;-79
2022/05/24 14:37:08;;;;;;;1.13;0.63;;;;;;;;;;5076135;28;20433;-82
2022/05/24 14:39:33;;;;;;;4.38;0.60;;;;;;;;;;5074123;28;20024;-80
2022/05/24 14:41:59;;;;;;;1.80;0.75;;;;;;;;;;5075329;28;20410;-78
2022/05/24 14:44:27;;;;;;;1.08;0.75;;;;;;;;;;5075247;28;20441;-79
2022/05/24 14:46:53;;;;;;;4.38;1.20;;;;;;;;;;5076529;28;20084;-80
2022/05/24 14:49:18;;;;;;;0.70;0.50;;;;;;;;;;5074489;28;20051;-79
2022/05/24 14:51:51;;;;;;;0.95;0.65;;;;;;;;;;5075823;28;20024;-78
2022/05/24 14:54:18;;;;;;;0.85;0.65;;;;;;;;;;5076155;28;20024;-81
2022/05/24 14:56:45;;;;;;;2.58;0.77;;;;;;;;;;5077184;28;20016;-78
2022/05/24 14:59:12;;;;;;;3.05;0.63;;;;;;;;;;5072188;28;20024;-80
2022/05/24 15:01:38;;;;;;;0.60;0.60;;;;;;;;;;5075438;28;20035;-82
2022/05/24 15:04:04;;;;;;;0.88;0.52;;;;;;;;;;5078417;28;20037;-82
2022/05/24 15:06:29;;;;;;;2.00;0.73;;;;;;;;;;5077497;28;20028;-82
2022/05/24 15:17:04;;;;;;;0.40;0.40;;;;;;;;;;5075403;28;20159;-80
2022/05/24 15:19:30;;;;;;;6.03;0.50;;;;;;;;;;5075160;28;20066;-80
2022/05/24 15:21:58;;;;;;;1.70;0.70;;;;;;;;;;5075574;28;20169;-80
2022/05/24 15:24:29;;;;;;;1.23;0.55;;;;;;;;;;5061771;28;20031;-79
2022/05/24 15:26:58;;;;;;;0.77;0.47;;;;;;;;;;5075929;28;20032;-80
2022/05/24 15:29:23;;;;;;;2.33;0.70;;;;;;;;;;5075645;28;20025;-80
2022/05/24 15:31:49;;;;;;;2.70;0.75;;;;;;;;;;5075169;28;20016;-80
2022/05/24 15:34:15;;;;;;;5.78;0.80;;;;;;;;;;5075799;28;20036;-80
2022/05/24 15:36:41;;;;;;;6.70;0.75;;;;;;;;;;5075794;28;20107;-81
2022/05/24 15:39:07;;;;;;;3.33;0.85;;;;;;;;;;5058062;28;20028;-78
2022/05/24 15:41:35;;;;;;;2.03;0.90;;;;;;;;;;5070093;28;20028;-80
2022/05/24 15:44:02;;;;;;;0.60;0.60;;;;;;;;;;5074920;28;20028;-80
2022/05/24 15:46:28;;;;;;;1.10;0.73;;;;;;;;;;5079216;28;20071;-79
2022/05/24 15:48:55;;;;;;;2.17;0.60;;;;;;;;;;5078999;28;20024;-80
2022/05/24 15:51:22;;;;;;;2.75;0.68;;;;;;;;;;5074645;28;20186;-80
2022/05/24 15:53:48;;;;;;;2.65;0.80;;;;;;;;;;5074859;28;20082;-79
2022/05/24 15:56:13;;;;;;;0.65;0.38;;;;;;;;;;5075158;28;20538;-80
2022/05/24 15:58:40;;;;;;;1.30;0.55;;;;;;;;;;5075585;28;20024;-80
2022/05/24 16:01:07;;;;;;;0.90;0.57;;;;;;;;;;5075364;28;20044;-80
2022/05/24 16:03:33;;;;;;;1.17;0.60;;;;;;;;;;5057924;28;20094;-79